sensor_id;sensor_type;location;lat;lon;timestamp;P1;durP1;ratioP1;P2;durP2;ratioP2
41139;SDS011;26881;48.784;9.192;2023-01-30T00:02:42;16.90;;;12.30;;
41139;SDS011;26881;48.784;9.192;2023-01-30T00:08:03;18.50;;;12.17;;
41139;SDS011;26881;48.784;9.192;2023-01-30T00:13:26;17.70;;;12.27;;
41139;SDS011;26881;48.784;9.192;2023-01-30T00:18:47;17.97;;;12.73;;
41139;SDS011;26881;48.784;9.192;2023-01-30T00:24:09;17.37;;;12.67;;
41139;SDS011;26881;48.784;9.192;2023-01-30T00:29:31;16.33;;;12.63;;
41139;SDS011;26881;48.784;9.192;2023-01-30T00:34:53;16.33;;;13.00;;
41139;SDS011;26881;48.784;9.192;2023-01-30T00:40:15;19.30;;;13.20;;
41139;SDS011;26881;48.784;9.192;2023-01-30T00:45:37;17.37;;;12.37;;
41139;SDS011;26881;48.784;9.192;2023-01-30T00:51:20;18.27;;;12.33;;
41139;SDS011;26881;48.784;9.192;2023-01-30T00:56:42;19.03;;;13.53;;
41139;SDS011;26881;48.784;9.192;2023-01-30T01:02:04;15.50;;;11.97;;
41139;SDS011;26881;48.784;9.192;2023-01-30T01:07:25;17.33;;;11.90;;
41139;SDS011;26881;48.784;9.192;2023-01-30T01:12:48;18.57;;;13.07;;
41139;SDS011;26881;48.784;9.192;2023-01-30T01:18:10;17.10;;;12.30;;
41139;SDS011;26881;48.784;9.192;2023-01-30T01:23:32;18.40;;;12.93;;
41139;SDS011;26881;48.784;9.192;2023-01-30T01:28:54;18.57;;;12.47;;
41139;SDS011;26881;48.784;9.192;2023-01-30T01:34:17;17.53;;;12.50;;
41139;SDS011;26881;48.784;9.192;2023-01-30T01:39:38;18.40;;;12.43;;
41139;SDS011;26881;48.784;9.192;2023-01-30T01:45:20;17.90;;;13.17;;
41139;SDS011;26881;48.784;9.192;2023-01-30T01:50:48;15.87;;;12.30;;
41139;SDS011;26881;48.784;9.192;2023-01-30T01:56:18;17.37;;;12.23;;
41139;SDS011;26881;48.784;9.192;2023-01-30T02:01:41;17.80;;;12.90;;
41139;SDS011;26881;48.784;9.192;2023-01-30T02:07:03;20.57;;;13.77;;
41139;SDS011;26881;48.784;9.192;2023-01-30T02:12:25;17.03;;;12.50;;
41139;SDS011;26881;48.784;9.192;2023-01-30T02:17:47;18.87;;;13.20;;
41139;SDS011;26881;48.784;9.192;2023-01-30T02:35:04;18.67;;;12.03;;
41139;SDS011;26881;48.784;9.192;2023-01-30T02:40:37;17.13;;;12.17;;
41139;SDS011;26881;48.784;9.192;2023-01-30T02:46:16;17.27;;;12.77;;
41139;SDS011;26881;48.784;9.192;2023-01-30T02:51:55;18.73;;;12.53;;
41139;SDS011;26881;48.784;9.192;2023-01-30T02:57:20;16.97;;;12.23;;
41139;SDS011;26881;48.784;9.192;2023-01-30T03:08:41;18.40;;;12.27;;
41139;SDS011;26881;48.784;9.192;2023-01-30T03:14:20;17.77;;;12.60;;
41139;SDS011;26881;48.784;9.192;2023-01-30T03:19:47;17.97;;;12.63;;
41139;SDS011;26881;48.784;9.192;2023-01-30T03:25:09;17.27;;;12.97;;
41139;SDS011;26881;48.784;9.192;2023-01-30T03:30:34;17.80;;;12.30;;
41139;SDS011;26881;48.784;9.192;2023-01-30T03:35:56;15.80;;;11.53;;
41139;SDS011;26881;48.784;9.192;2023-01-30T03:41:18;14.60;;;11.43;;
41139;SDS011;26881;48.784;9.192;2023-01-30T03:46:39;15.90;;;11.97;;
41139;SDS011;26881;48.784;9.192;2023-01-30T03:52:01;16.23;;;11.13;;
41139;SDS011;26881;48.784;9.192;2023-01-30T03:57:23;13.87;;;11.10;;
41139;SDS011;26881;48.784;9.192;2023-01-30T04:02:44;14.87;;;10.87;;
41139;SDS011;26881;48.784;9.192;2023-01-30T04:08:06;18.17;;;11.20;;
41139;SDS011;26881;48.784;9.192;2023-01-30T04:13:28;13.77;;;10.60;;
41139;SDS011;26881;48.784;9.192;2023-01-30T04:18:50;16.07;;;10.37;;
41139;SDS011;26881;48.784;9.192;2023-01-30T04:24:12;13.47;;;10.50;;
41139;SDS011;26881;48.784;9.192;2023-01-30T04:29:34;13.67;;;10.17;;
41139;SDS011;26881;48.784;9.192;2023-01-30T04:34:56;14.67;;;10.00;;
41139;SDS011;26881;48.784;9.192;2023-01-30T04:40:18;14.00;;;9.83;;
41139;SDS011;26881;48.784;9.192;2023-01-30T04:45:43;15.37;;;10.63;;
41139;SDS011;26881;48.784;9.192;2023-01-30T04:51:05;13.00;;;10.03;;
41139;SDS011;26881;48.784;9.192;2023-01-30T04:56:27;12.70;;;9.63;;
41139;SDS011;26881;48.784;9.192;2023-01-30T05:01:49;13.53;;;10.17;;
41139;SDS011;26881;48.784;9.192;2023-01-30T05:07:11;11.53;;;9.30;;
41139;SDS011;26881;48.784;9.192;2023-01-30T05:12:33;13.17;;;9.03;;
41139;SDS011;26881;48.784;9.192;2023-01-30T05:17:55;14.20;;;9.47;;
41139;SDS011;26881;48.784;9.192;2023-01-30T05:23:17;16.97;;;8.70;;
41139;SDS011;26881;48.784;9.192;2023-01-30T05:28:39;13.83;;;8.77;;
41139;SDS011;26881;48.784;9.192;2023-01-30T05:34:01;18.70;;;9.47;;
41139;SDS011;26881;48.784;9.192;2023-01-30T05:39:22;13.93;;;10.00;;
41139;SDS011;26881;48.784;9.192;2023-01-30T05:44:44;12.90;;;9.17;;
41139;SDS011;26881;48.784;9.192;2023-01-30T05:50:06;19.03;;;9.73;;
41139;SDS011;26881;48.784;9.192;2023-01-30T05:55:28;18.80;;;9.50;;
41139;SDS011;26881;48.784;9.192;2023-01-30T06:00:51;13.80;;;9.10;;
41139;SDS011;26881;48.784;9.192;2023-01-30T06:06:12;16.33;;;9.27;;
41139;SDS011;26881;48.784;9.192;2023-01-30T06:11:34;20.67;;;8.20;;
41139;SDS011;26881;48.784;9.192;2023-01-30T06:16:56;25.70;;;8.93;;
41139;SDS011;26881;48.784;9.192;2023-01-30T06:22:18;13.53;;;9.03;;
41139;SDS011;26881;48.784;9.192;2023-01-30T06:27:40;15.23;;;9.27;;
41139;SDS011;26881;48.784;9.192;2023-01-30T06:33:02;19.73;;;9.27;;
41139;SDS011;26881;48.784;9.192;2023-01-30T06:38:24;16.87;;;8.77;;
41139;SDS011;26881;48.784;9.192;2023-01-30T06:43:46;18.10;;;9.70;;
41139;SDS011;26881;48.784;9.192;2023-01-30T06:49:08;17.03;;;9.47;;
41139;SDS011;26881;48.784;9.192;2023-01-30T06:54:30;18.23;;;9.50;;
41139;SDS011;26881;48.784;9.192;2023-01-30T06:59:52;21.73;;;10.17;;
41139;SDS011;26881;48.784;9.192;2023-01-30T07:05:14;18.73;;;9.70;;
41139;SDS011;26881;48.784;9.192;2023-01-30T07:10:35;20.43;;;9.97;;
41139;SDS011;26881;48.784;9.192;2023-01-30T07:15:57;14.53;;;9.20;;
41139;SDS011;26881;48.784;9.192;2023-01-30T07:21:19;20.60;;;9.07;;
41139;SDS011;26881;48.784;9.192;2023-01-30T07:26:41;15.17;;;9.03;;
41139;SDS011;26881;48.784;9.192;2023-01-30T07:32:03;19.33;;;8.87;;
41139;SDS011;26881;48.784;9.192;2023-01-30T07:37:26;14.53;;;9.33;;
41139;SDS011;26881;48.784;9.192;2023-01-30T07:42:55;16.60;;;8.53;;
41139;SDS011;26881;48.784;9.192;2023-01-30T07:48:17;12.97;;;7.50;;
41139;SDS011;26881;48.784;9.192;2023-01-30T07:53:40;13.60;;;8.60;;
41139;SDS011;26881;48.784;9.192;2023-01-30T07:59:01;13.23;;;8.03;;
41139;SDS011;26881;48.784;9.192;2023-01-30T08:04:26;17.70;;;9.63;;
41139;SDS011;26881;48.784;9.192;2023-01-30T08:09:47;15.73;;;8.63;;
41139;SDS011;26881;48.784;9.192;2023-01-30T08:15:09;14.20;;;7.97;;
41139;SDS011;26881;48.784;9.192;2023-01-30T08:20:31;13.83;;;8.23;;
41139;SDS011;26881;48.784;9.192;2023-01-30T08:25:54;12.17;;;7.80;;
41139;SDS011;26881;48.784;9.192;2023-01-30T08:31:26;11.97;;;7.80;;
41139;SDS011;26881;48.784;9.192;2023-01-30T08:36:48;10.83;;;7.70;;
41139;SDS011;26881;48.784;9.192;2023-01-30T08:42:10;10.63;;;8.43;;
41139;SDS011;26881;48.784;9.192;2023-01-30T08:47:31;11.27;;;7.57;;
41139;SDS011;26881;48.784;9.192;2023-01-30T08:52:55;19.10;;;7.87;;
41139;SDS011;26881;48.784;9.192;2023-01-30T08:58:20;13.90;;;8.63;;
41139;SDS011;26881;48.784;9.192;2023-01-30T09:03:42;16.80;;;7.23;;
41139;SDS011;26881;48.784;9.192;2023-01-30T09:09:04;10.43;;;7.17;;
41139;SDS011;26881;48.784;9.192;2023-01-30T09:14:25;14.83;;;7.27;;
41139;SDS011;26881;48.784;9.192;2023-01-30T09:19:47;14.77;;;7.20;;
41139;SDS011;26881;48.784;9.192;2023-01-30T09:25:09;11.90;;;7.03;;
41139;SDS011;26881;48.784;9.192;2023-01-30T09:30:31;13.33;;;7.10;;
41139;SDS011;26881;48.784;9.192;2023-01-30T09:35:53;11.33;;;7.07;;
41139;SDS011;26881;48.784;9.192;2023-01-30T09:47:13;9.00;;;5.93;;
41139;SDS011;26881;48.784;9.192;2023-01-30T09:58:36;14.47;;;5.77;;
41139;SDS011;26881;48.784;9.192;2023-01-30T10:04:08;13.50;;;5.00;;
41139;SDS011;26881;48.784;9.192;2023-01-30T10:09:44;6.27;;;4.40;;
41139;SDS011;26881;48.784;9.192;2023-01-30T10:26:27;6.20;;;4.23;;
41139;SDS011;26881;48.784;9.192;2023-01-30T10:32:10;5.70;;;3.73;;
41139;SDS011;26881;48.784;9.192;2023-01-30T10:37:56;7.20;;;3.73;;
41139;SDS011;26881;48.784;9.192;2023-01-30T10:43:25;5.97;;;4.07;;
41139;SDS011;26881;48.784;9.192;2023-01-30T10:49:03;5.37;;;3.03;;
41139;SDS011;26881;48.784;9.192;2023-01-30T10:59:58;4.20;;;3.13;;
41139;SDS011;26881;48.784;9.192;2023-01-30T11:05:26;3.57;;;3.00;;
41139;SDS011;26881;48.784;9.192;2023-01-30T11:11:00;2.50;;;2.30;;
41139;SDS011;26881;48.784;9.192;2023-01-30T11:22:12;5.33;;;2.43;;
41139;SDS011;26881;48.784;9.192;2023-01-30T11:27:35;3.57;;;2.60;;
41139;SDS011;26881;48.784;9.192;2023-01-30T11:39:00;5.80;;;4.03;;
41139;SDS011;26881;48.784;9.192;2023-01-30T11:44:40;4.17;;;3.77;;
41139;SDS011;26881;48.784;9.192;2023-01-30T11:50:02;4.63;;;3.97;;
41139;SDS011;26881;48.784;9.192;2023-01-30T11:55:44;6.37;;;4.43;;
41139;SDS011;26881;48.784;9.192;2023-01-30T12:01:33;5.60;;;4.73;;
41139;SDS011;26881;48.784;9.192;2023-01-30T12:07:03;5.73;;;4.77;;
41139;SDS011;26881;48.784;9.192;2023-01-30T12:12:42;7.60;;;4.70;;
41139;SDS011;26881;48.784;9.192;2023-01-30T12:18:11;5.80;;;5.00;;
41139;SDS011;26881;48.784;9.192;2023-01-30T12:23:45;6.17;;;4.67;;
41139;SDS011;26881;48.784;9.192;2023-01-30T12:29:20;10.33;;;4.77;;
41139;SDS011;26881;48.784;9.192;2023-01-30T12:34:45;8.07;;;4.50;;
41139;SDS011;26881;48.784;9.192;2023-01-30T12:51:46;6.53;;;4.47;;
41139;SDS011;26881;48.784;9.192;2023-01-30T12:57:37;5.73;;;4.20;;
41139;SDS011;26881;48.784;9.192;2023-01-30T13:08:48;10.47;;;4.90;;
41139;SDS011;26881;48.784;9.192;2023-01-30T13:14:28;14.77;;;5.20;;
41139;SDS011;26881;48.784;9.192;2023-01-30T13:19:59;14.20;;;5.73;;
41139;SDS011;26881;48.784;9.192;2023-01-30T13:25:31;5.80;;;4.37;;
41139;SDS011;26881;48.784;9.192;2023-01-30T13:31:04;5.30;;;4.40;;
41139;SDS011;26881;48.784;9.192;2023-01-30T13:42:04;4.97;;;4.03;;
41139;SDS011;26881;48.784;9.192;2023-01-30T14:10:03;2.43;;;2.17;;
41139;SDS011;26881;48.784;9.192;2023-01-30T14:15:26;3.27;;;1.90;;
41139;SDS011;26881;48.784;9.192;2023-01-30T14:20:49;3.03;;;1.80;;
41139;SDS011;26881;48.784;9.192;2023-01-30T14:26:12;2.33;;;1.60;;
41139;SDS011;26881;48.784;9.192;2023-01-30T14:31:44;1.83;;;1.73;;
41139;SDS011;26881;48.784;9.192;2023-01-30T14:37:28;2.33;;;1.80;;
41139;SDS011;26881;48.784;9.192;2023-01-30T14:59:49;3.60;;;2.50;;
41139;SDS011;26881;48.784;9.192;2023-01-30T15:05:39;2.67;;;2.10;;
41139;SDS011;26881;48.784;9.192;2023-01-30T15:11:11;3.73;;;2.20;;
41139;SDS011;26881;48.784;9.192;2023-01-30T15:16:52;3.60;;;2.30;;
41139;SDS011;26881;48.784;9.192;2023-01-30T15:22:52;5.00;;;2.50;;
41139;SDS011;26881;48.784;9.192;2023-01-30T15:28:44;3.67;;;2.60;;
41139;SDS011;26881;48.784;9.192;2023-01-30T15:34:29;4.23;;;2.50;;
41139;SDS011;26881;48.784;9.192;2023-01-30T15:40:08;7.67;;;3.37;;
41139;SDS011;26881;48.784;9.192;2023-01-30T15:45:45;3.60;;;2.97;;
41139;SDS011;26881;48.784;9.192;2023-01-30T15:51:33;6.03;;;3.53;;
41139;SDS011;26881;48.784;9.192;2023-01-30T15:56:56;4.93;;;2.73;;
41139;SDS011;26881;48.784;9.192;2023-01-30T16:02:25;6.27;;;2.97;;
41139;SDS011;26881;48.784;9.192;2023-01-30T16:07:51;5.17;;;3.17;;
41139;SDS011;26881;48.784;9.192;2023-01-30T16:13:14;3.67;;;2.80;;
41139;SDS011;26881;48.784;9.192;2023-01-30T16:18:37;5.03;;;3.40;;
41139;SDS011;26881;48.784;9.192;2023-01-30T16:29:48;5.07;;;3.50;;
41139;SDS011;26881;48.784;9.192;2023-01-30T16:35:25;7.63;;;3.50;;
41139;SDS011;26881;48.784;9.192;2023-01-30T16:40:51;5.63;;;3.63;;
41139;SDS011;26881;48.784;9.192;2023-01-30T16:52:22;5.43;;;3.70;;
41139;SDS011;26881;48.784;9.192;2023-01-30T16:57:53;5.60;;;3.27;;
41139;SDS011;26881;48.784;9.192;2023-01-30T17:03:18;4.97;;;3.40;;
41139;SDS011;26881;48.784;9.192;2023-01-30T17:08:46;6.17;;;3.50;;
41139;SDS011;26881;48.784;9.192;2023-01-30T17:19:42;5.70;;;3.90;;
41139;SDS011;26881;48.784;9.192;2023-01-30T17:25:13;5.23;;;3.80;;
41139;SDS011;26881;48.784;9.192;2023-01-30T17:30:40;12.03;;;4.37;;
41139;SDS011;26881;48.784;9.192;2023-01-30T17:36:03;6.63;;;3.43;;
41139;SDS011;26881;48.784;9.192;2023-01-30T17:41:28;6.70;;;3.77;;
41139;SDS011;26881;48.784;9.192;2023-01-30T17:46:51;4.50;;;3.03;;
41139;SDS011;26881;48.784;9.192;2023-01-30T17:52:13;6.23;;;4.00;;
41139;SDS011;26881;48.784;9.192;2023-01-30T17:57:35;7.77;;;3.97;;
41139;SDS011;26881;48.784;9.192;2023-01-30T18:02:56;9.20;;;4.80;;
41139;SDS011;26881;48.784;9.192;2023-01-30T18:08:18;10.37;;;5.20;;
41139;SDS011;26881;48.784;9.192;2023-01-30T18:13:40;6.70;;;3.47;;
41139;SDS011;26881;48.784;9.192;2023-01-30T18:19:04;8.43;;;4.43;;
41139;SDS011;26881;48.784;9.192;2023-01-30T18:24:27;7.27;;;4.27;;
41139;SDS011;26881;48.784;9.192;2023-01-30T18:29:49;7.00;;;4.20;;
41139;SDS011;26881;48.784;9.192;2023-01-30T18:35:10;5.73;;;4.13;;
41139;SDS011;26881;48.784;9.192;2023-01-30T18:40:32;8.13;;;5.13;;
41139;SDS011;26881;48.784;9.192;2023-01-30T18:46:00;7.47;;;4.30;;
41139;SDS011;26881;48.784;9.192;2023-01-30T18:51:24;6.90;;;4.10;;
41139;SDS011;26881;48.784;9.192;2023-01-30T18:56:47;6.70;;;4.10;;
41139;SDS011;26881;48.784;9.192;2023-01-30T19:02:10;8.00;;;3.70;;
41139;SDS011;26881;48.784;9.192;2023-01-30T19:07:33;6.33;;;3.83;;
41139;SDS011;26881;48.784;9.192;2023-01-30T19:12:55;7.73;;;3.90;;
41139;SDS011;26881;48.784;9.192;2023-01-30T19:18:36;8.10;;;4.77;;
41139;SDS011;26881;48.784;9.192;2023-01-30T19:24:00;8.77;;;4.83;;
41139;SDS011;26881;48.784;9.192;2023-01-30T19:29:22;7.40;;;4.67;;
41139;SDS011;26881;48.784;9.192;2023-01-30T19:34:44;9.93;;;4.47;;
41139;SDS011;26881;48.784;9.192;2023-01-30T19:40:06;7.90;;;4.43;;
41139;SDS011;26881;48.784;9.192;2023-01-30T19:45:30;9.27;;;4.03;;
41139;SDS011;26881;48.784;9.192;2023-01-30T19:50:55;5.93;;;4.40;;
41139;SDS011;26881;48.784;9.192;2023-01-30T19:56:19;8.70;;;4.60;;
41139;SDS011;26881;48.784;9.192;2023-01-30T20:01:43;8.23;;;4.97;;
41139;SDS011;26881;48.784;9.192;2023-01-30T20:07:05;7.40;;;4.37;;
41139;SDS011;26881;48.784;9.192;2023-01-30T20:12:27;8.07;;;4.07;;
41139;SDS011;26881;48.784;9.192;2023-01-30T20:17:51;7.03;;;4.60;;
41139;SDS011;26881;48.784;9.192;2023-01-30T20:23:13;11.10;;;4.73;;
41139;SDS011;26881;48.784;9.192;2023-01-30T20:28:36;8.77;;;4.27;;
41139;SDS011;26881;48.784;9.192;2023-01-30T20:34:02;13.33;;;5.33;;
41139;SDS011;26881;48.784;9.192;2023-01-30T20:39:29;10.47;;;4.47;;
41139;SDS011;26881;48.784;9.192;2023-01-30T20:44:51;6.83;;;4.43;;
41139;SDS011;26881;48.784;9.192;2023-01-30T20:50:14;9.13;;;4.80;;
41139;SDS011;26881;48.784;9.192;2023-01-30T20:55:36;7.80;;;4.50;;
41139;SDS011;26881;48.784;9.192;2023-01-30T21:01:15;9.47;;;4.40;;
41139;SDS011;26881;48.784;9.192;2023-01-30T21:06:39;8.73;;;4.43;;
41139;SDS011;26881;48.784;9.192;2023-01-30T21:12:05;7.27;;;4.53;;
41139;SDS011;26881;48.784;9.192;2023-01-30T21:17:27;8.03;;;5.20;;
41139;SDS011;26881;48.784;9.192;2023-01-30T21:22:49;9.80;;;5.33;;
41139;SDS011;26881;48.784;9.192;2023-01-30T21:28:11;12.83;;;7.33;;
41139;SDS011;26881;48.784;9.192;2023-01-30T21:33:33;9.27;;;6.17;;
41139;SDS011;26881;48.784;9.192;2023-01-30T21:38:54;10.93;;;6.13;;
41139;SDS011;26881;48.784;9.192;2023-01-30T21:44:35;11.63;;;6.13;;
41139;SDS011;26881;48.784;9.192;2023-01-30T21:49:58;10.47;;;5.50;;
41139;SDS011;26881;48.784;9.192;2023-01-30T21:55:20;12.50;;;5.67;;
41139;SDS011;26881;48.784;9.192;2023-01-30T22:00:42;8.57;;;5.40;;
41139;SDS011;26881;48.784;9.192;2023-01-30T22:06:07;10.70;;;5.63;;
41139;SDS011;26881;48.784;9.192;2023-01-30T22:11:30;12.80;;;5.03;;
41139;SDS011;26881;48.784;9.192;2023-01-30T22:16:53;8.00;;;5.13;;
41139;SDS011;26881;48.784;9.192;2023-01-30T22:22:15;13.10;;;4.90;;
41139;SDS011;26881;48.784;9.192;2023-01-30T22:27:36;7.60;;;5.00;;
41139;SDS011;26881;48.784;9.192;2023-01-30T22:32:58;8.90;;;5.00;;
41139;SDS011;26881;48.784;9.192;2023-01-30T22:38:20;12.17;;;4.60;;
41139;SDS011;26881;48.784;9.192;2023-01-30T22:43:44;7.93;;;4.90;;
41139;SDS011;26881;48.784;9.192;2023-01-30T22:49:08;9.43;;;5.00;;
41139;SDS011;26881;48.784;9.192;2023-01-30T22:54:30;14.97;;;5.00;;
41139;SDS011;26881;48.784;9.192;2023-01-30T22:59:52;9.20;;;5.10;;
41139;SDS011;26881;48.784;9.192;2023-01-30T23:05:14;11.10;;;4.90;;
41139;SDS011;26881;48.784;9.192;2023-01-30T23:10:38;11.63;;;4.90;;
41139;SDS011;26881;48.784;9.192;2023-01-30T23:16:01;11.83;;;5.03;;
41139;SDS011;26881;48.784;9.192;2023-01-30T23:21:28;8.80;;;4.87;;
41139;SDS011;26881;48.784;9.192;2023-01-30T23:26:52;6.43;;;4.70;;
41139;SDS011;26881;48.784;9.192;2023-01-30T23:32:14;13.20;;;4.43;;
41139;SDS011;26881;48.784;9.192;2023-01-30T23:37:39;11.83;;;4.57;;
41139;SDS011;26881;48.784;9.192;2023-01-30T23:43:19;12.53;;;4.67;;
41139;SDS011;26881;48.784;9.192;2023-01-30T23:48:41;11.87;;;4.63;;
41139;SDS011;26881;48.784;9.192;2023-01-30T23:54:05;9.53;;;4.70;;
41139;SDS011;26881;48.784;9.192;2023-01-30T23:59:27;14.30;;;5.70;;
